Tiempo atmosférico en la estación meteorológica de Córdoba, Prágdena, Córdoba (275 m.)



Fecha
DESCASC
Temp. máxima en grados centígrados (hora)
DESCASC
Temp. mínima en grados centígrados (hora)
DESCASC
Temp. media en grados centígrados
DESCASC
Racha de viento máxima en m/sg (hora)
DESCASC
Velocidad máxima media en intervalos de 10 minutos(hora)
DESCASC
Precipitaciones diarias en mm
DESCASC
Precipitaciones de 00:00 a 06:00 en mm
DESCASC
Precipitaciones de 06:00 a 12:00 en mm
DESCASC
Precipitaciones de 12:00 a 18:00 en mm
DESCASC
Precipitaciones de 18:00 a 24:00 en mm
DESCASC
05-12-2019 15.2 (15:40) 6.9 (08:30) 11 9.17 (12:30) 6.39 (12:40) 0 0 0 0 0
04-12-2019 14.4 (15:40) 6.9 (05:40) 10.6 5.28 (03:00) 3.89 (02:50) 0.4 0 0.4 0 0
03-12-2019 14.8 (13:50) 9 (00:00) 11.9 10 (12:10) 6.67 (12:20) 0 0 0 0 0
02-12-2019 15.6 (15:40) 8.9 (00:00) 12.3 10.83 (11:30) 7.5 (12:20) 6.2 6.2 0 0 0
01-12-2019 13.8 (00:00) 9.1 (00:00) 11.5 9.72 (02:20) 4.72 (15:50) 17.6 1.6 0 4.4 11.6
30-11-2019 18 (14:50) 7.4 (00:00) 12.7 6.67 (23:59) 3.61 (23:59) 0 0 0 0 0
29-11-2019 17.3 (16:00) 8.4 (00:00) 12.8 4.72 (15:00) 3.06 (16:50) 0 0 0 0 0
28-11-2019 15.6 (17:20) 10.3 (00:00) 13 3.06 (04:30) 2.22 (02:20) 0.2 0 0.2 0 0
27-11-2019 17.2 (15:00) 12.5 (00:00) 14.9 10 (02:30) 5.56 (02:10) 0.8 0.8 0 0 0
26-11-2019 17.1 (15:20) 12.8 (00:00) 15 8.89 (22:00) 5.28 (22:10) 1.4 0 0 0.2 1.2
25-11-2019 15 (21:40) 10.4 (00:00) 12.7 4.72 (11:50) 2.78 (12:10) 3.6 0 1.6 2 0
24-11-2019 14.1 (15:50) 5.6 (00:00) 9.9 5.83 (15:30) 3.33 (16:00) 0 0 0 0 0
23-11-2019 15.2 (15:20) 8.5 (00:00) 11.8 15 (03:10) 9.17 (04:50) 2 2 0 0 0
22-11-2019 15.9 (18:10) 11.7 (00:00) 13.8 18.61 (17:50) 10.56 (18:00) 54.2 4.2 1.6 45.2 3.2
21-11-2019 13.2 (13:40) 9.4 (00:00) 11.3 5.83 (14:00) 3.61 (13:40) 15.6 2.2 3.8 7.2 2.4
20-11-2019 9.9 (17:00) 2.7 (00:00) 6.3 6.94 (20:50) 3.06 (05:10) 2.4 0 0 1 1.4
19-11-2019 13.3 (16:00) 3.3 (00:00) 8.3 3.33 (11:10) 2.5 (11:10) 0 0 0 0 0
18-11-2019 14.6 (15:20) 6.4 (00:00) 10.5 13.33 (02:20) 7.22 (02:20) 11.4 11.4 0 0 0
17-11-2019 12.1 (23:50) 2.3 (00:00) 7.2 10.56 (23:59) 5.83 (23:59) 10.6 0 1 1.6 8
16-11-2019 13 (16:20) -0.2 (00:00) 6.4 6.39 (17:00) 4.17 (17:00) 0 0 0 0 0
15-11-2019 9.8 (15:00) 3.8 (00:00) 6.8 8.33 (01:00) 5 (01:10) 0 0 0 0 0
14-11-2019 13.6 (17:00) 8 (00:00) 10.8 14.72 (12:50) 9.72 (12:50) 0.8 0 0.6 0.2 0
13-11-2019 19.5 (15:30) 10.1 (00:00) 14.8 10.83 (12:30) 7.22 (13:50) 0 0 0 0 0
12-11-2019 16.8 (16:30) 6 (00:00) 11.4 5.56 (15:30) 2.78 (23:00) 0 0 0 0 0
11-11-2019 14 (14:50) 8.9 (07:30) 11.4 6.11 (16:20) 3.89 (16:20) 0 0 0 0 0
10-11-2019 14.2 (13:20) 9.3 (00:00) 11.8 8.89 (18:10) 5 (18:20) 0 0 0 0 0
09-11-2019 15.2 (15:00) 2.4 (00:00) 8.8 6.11 (22:10) 3.61 (22:50) 0 0 0 0 0
08-11-2019 -- (--) -- (--) -- 6.67 (11:50) 4.17 (16:40) -- 0 0 -- --

Gráficas

Temp. máximas Temp. mínimas Temp. medias Precipitaciones Rachas de viento máximas Velocidades máximas media en intervalos de 10 minutos

Datos horarios

Fecha y hora oficial Temperatura (ºC) Velocidad del viento (km/h) Dirección del viento Racha (km/h) Dirección de racha Precipitación (mm) Presión (hPa) Tendencia (hPa) Humedad (%)
2019-12-07 23:00:00 8.9 0 Calma 3 Este 0 -- -- 86
2019-12-07 22:00:00 10.2 0 Calma 4 Este 0 -- -- 83
2019-12-07 21:00:00 10.6 0 Calma 4 Nordeste 0 -- -- 82
2019-12-07 20:00:00 11.8 3 Norte 5 Noroeste 0 -- -- 79
2019-12-07 19:00:00 13 4 Este 5 Este 0 -- -- 74
2019-12-07 18:00:00 15.5 0 Calma 3 Nordeste 0 -- -- 65
2019-12-07 17:00:00 16.2 2 Norte 7 Norte 0 -- -- 62
2019-12-07 16:00:00 16.3 2 Nordeste 12 Noroeste 0 -- -- 62
2019-12-07 15:00:00 16 3 Norte 8 Noroeste 0 -- -- 62
2019-12-07 14:00:00 14.9 3 Norte 9 Nordeste 0 -- -- 65
2019-12-07 13:00:00 13.9 4 Nordeste 14 Nordeste 0 -- -- 70
2019-12-07 12:00:00 12.1 8 Nordeste 16 Nordeste 0 -- -- 75
2019-12-07 11:00:00 10.2 10 Nordeste 15 Este 0 -- -- 83
2019-12-07 10:00:00 7.2 8 Nordeste 12 Nordeste 0 -- -- 96
2019-12-07 09:00:00 5.8 8 Nordeste 12 Norte 0 -- -- 97
2019-12-07 08:00:00 5.3 9 Norte 11 Norte 0 -- -- 97
2019-12-07 07:00:00 5.8 8 Norte 12 Nordeste 0 -- -- 95
2019-12-07 06:00:00 6.8 8 Este 10 Este 0 -- -- 93
2019-12-07 05:00:00 7.4 7 Nordeste 12 Nordeste 0 -- -- 92
2019-12-07 04:00:00 7.9 5 Nordeste 7 Nordeste 0 -- -- 92
2019-12-07 03:00:00 8 3 Nordeste 4 Nordeste 0 -- -- 91
2019-12-07 02:00:00 9.3 5 Nordeste 6 Nordeste 0 -- -- 86
2019-12-07 01:00:00 9.2 4 Este 12 Este 0 -- -- 84
2019-12-07 00:00:00 9.8 7 Nordeste 13 Norte 0 -- -- 85
2019-12-06 23:00:00 10.4 9 Nordeste 14 Norte 0 -- -- 83
2019-12-06 22:00:00 11.7 8 Nordeste 14 Nordeste 0 -- -- 79
2019-12-06 21:00:00 11.4 6 Nordeste 11 Norte 0 -- -- 79
2019-12-06 20:00:00 12 4 Nordeste 9 Norte 0 -- -- 75
2019-12-06 19:00:00 13.2 6 Norte 15 Nordeste 0 -- -- 71
2019-12-06 18:00:00 15.2 10 Nordeste 19 Nordeste 0 -- -- 65
2019-12-06 17:00:00 17 9 Nordeste 22 Norte 0 -- -- 60
2019-12-06 16:00:00 17.5 14 Nordeste 21 Nordeste 0 -- -- 58
2019-12-06 15:00:00 17.4 11 Nordeste 20 Nordeste 0 -- -- 56
2019-12-06 14:00:00 16.7 12 Nordeste 25 Nordeste 0 -- -- 60
2019-12-06 13:00:00 15.8 16 Nordeste 26 Nordeste 0 -- -- 64
2019-12-06 12:00:00 14.3 9 Este 18 Este 0 -- -- 70
2019-12-06 11:00:00 11.9 10 Este 17 Nordeste 0 -- -- 77
2019-12-06 10:00:00 9.3 8 Nordeste 11 Nordeste 0 -- -- 86
2019-12-06 09:00:00 7.9 5 Nordeste 14 Nordeste 0 -- -- 87
2019-12-06 08:00:00 7.2 3 Nordeste 12 Nordeste 0 -- -- 88
2019-12-06 07:00:00 8.4 10 Nordeste 17 Nordeste 0 -- -- 83
2019-12-06 06:00:00 8.3 13 Nordeste 19 Nordeste 0 -- -- 84
2019-12-06 05:00:00 7.8 10 Nordeste 17 Nordeste 0 -- -- 86
2019-12-06 04:00:00 7.9 10 Nordeste 17 Nordeste 0 -- -- 86
2019-12-06 03:00:00 8.4 9 Nordeste 13 Nordeste 0 -- -- 84
2019-12-06 02:00:00 8.9 5 Nordeste 14 Nordeste 0 -- -- 84
2019-12-06 01:00:00 8.7 5 Norte 16 Nordeste 0 -- -- 86
2019-12-06 00:00:00 9.6 11 Nordeste 18 Nordeste 0 -- -- 83
2019-12-05 23:00:00 10.4 6 Nordeste 20 Nordeste 0 -- -- 81
2019-12-05 22:00:00 10.8 7 Nordeste 19 Nordeste 0 -- -- 80
2019-12-05 21:00:00 11 7 Norte 15 Nordeste 0 -- -- 80
2019-12-05 20:00:00 11.9 6 Este 16 Nordeste 0 -- -- 79
2019-12-05 19:00:00 12.2 9 Nordeste 14 Nordeste 0 -- -- 78
2019-12-05 18:00:00 13.7 7 Norte 15 Nordeste 0 -- -- 73
2019-12-05 17:00:00 15 12 Nordeste 20 Nordeste 0 -- -- 66
2019-12-05 16:00:00 15.1 12 Nordeste 23 Nordeste 0 -- -- 65
2019-12-05 15:00:00 14.6 12 Nordeste 27 Nordeste 0 -- -- 64
2019-12-05 14:00:00 14.6 15 Nordeste 31 Nordeste 0 -- -- 66
2019-12-05 13:00:00 14 22 Nordeste 33 Nordeste 0 -- -- 69
2019-12-05 12:00:00 13.5 19 Nordeste 31 Nordeste 0 -- -- 73
2019-12-05 11:00:00 11.4 8 Nordeste 15 Nordeste 0 -- -- 86
2019-12-05 10:00:00 8.8 5 Norte 11 Norte 0 -- -- 91
2019-12-05 09:00:00 7.1 6 Nordeste 9 Nordeste 0 -- -- 92
2019-12-05 08:00:00 7.1 7 Nordeste 10 Este 0 -- -- 90
2019-12-05 07:00:00 7.7 6 Este 9 Nordeste 0 -- -- 86
2019-12-05 06:00:00 8.2 5 Nordeste 7 Nordeste 0 -- -- 84
2019-12-05 05:00:00 8.6 2 Este 4 Norte 0 -- -- 83
2019-12-05 04:00:00 8.7 0 Calma 4 Norte 0 -- -- 85
2019-12-05 03:00:00 9.1 4 Sur 10 Sur 0 -- -- 82
2019-12-05 02:00:00 9.3 4 Sur 9 Sudoeste 0 -- -- 80
2019-12-05 01:00:00 9.6 6 Sur 13 Sur 0 -- -- 79
2019-12-05 00:00:00 10 6 Sudoeste 12 Sur 0 -- -- 87
2019-12-04 23:00:00 10.3 5 Sur 8 Sur 0 -- -- 89
2019-12-04 22:00:00 10.7 6 Sudoeste 10 Sudoeste 0 -- -- 88
2019-12-04 21:00:00 11.1 4 Sudoeste 8 Sudoeste 0 -- -- 84
2019-12-04 20:00:00 11.3 4 Sudoeste 7 Sudoeste 0 -- -- 83
2019-12-04 19:00:00 11.8 5 Sudoeste 13 Sudoeste 0 -- -- 78
2019-12-04 18:00:00 13.2 8 Sudoeste 12 Sudoeste 0 -- -- 74
2019-12-04 17:00:00 14.1 4 Sur 9 Sur 0 -- -- 69
2019-12-04 16:00:00 13.7 4 Noroeste 12 Oeste 0 -- -- 68
2019-12-04 15:00:00 13.5 7 Sudoeste 17 Sudoeste 0 -- -- 71
2019-12-04 14:00:00 13.4 6 Sudoeste 12 Sudoeste 0 -- -- 71
2019-12-04 13:00:00 12.6 2 Sudoeste 9 Norte 0 -- -- 74
2019-12-04 12:00:00 10.5 3 Nordeste 11 Este 0 -- -- 80
2019-12-04 11:00:00 9.8 11 Nordeste 16 Nordeste 0 -- -- 80
2019-12-04 10:00:00 8.1 6 Nordeste 12 Nordeste 0 -- -- 93
2019-12-04 09:00:00 7.7 4 Sudoeste 19 Nordeste 0.4 -- -- 91
2019-12-04 08:00:00 7.7 13 Nordeste 18 Nordeste 0 -- -- 88
2019-12-04 07:00:00 7.2 4 Nordeste 8 Nordeste 0 -- -- 91
2019-12-04 06:00:00 7 7 Nordeste 11 Nordeste 0 -- -- 90
2019-12-04 05:00:00 7.2 5 Norte 7 Nordeste 0 -- -- 88
2019-12-04 04:00:00 8.2 2 Este 12 Este 0 -- -- 82
2019-12-04 03:00:00 8.8 12 Nordeste 19 Este 0 -- -- 81
2019-12-04 02:00:00 9.4 4 Nordeste 14 Nordeste 0 -- -- 81
2019-12-04 01:00:00 9.5 6 Norte 10 Nordeste 0 -- -- 81
2019-12-04 00:00:00 9.9 8 Nordeste 17 Nordeste 0 -- -- 78
2019-12-03 23:00:00 10.3 9 Nordeste 22 Nordeste 0 -- -- 79
2019-12-03 22:00:00 11 13 Nordeste 25 Nordeste 0 -- -- 76
2019-12-03 21:00:00 11.7 17 Nordeste 28 Nordeste 0 -- -- 75
2019-12-03 20:00:00 12.8 19 Nordeste 32 Nordeste 0 -- -- 70
2019-12-03 19:00:00 13.3 16 Nordeste 26 Nordeste 0 -- -- 72
2019-12-03 18:00:00 13.6 7 Nordeste 13 Nordeste 0 -- -- 78
2019-12-03 17:00:00 14.5 10 Nordeste 14 Nordeste 0 -- -- 72
2019-12-03 16:00:00 14.6 9 Nordeste 17 Este 0 -- -- 69
2019-12-03 15:00:00 14.5 15 Nordeste 28 Nordeste 0 -- -- 67
2019-12-03 14:00:00 14.8 22 Nordeste 32 Nordeste 0 -- -- 64
2019-12-03 13:00:00 13.5 21 Nordeste 36 Nordeste 0 -- -- 71
2019-12-03 12:00:00 13.2 21 Nordeste 33 Nordeste 0 -- -- 73
2019-12-03 11:00:00 10.6 10 Norte 17 Norte 0 -- -- 82
2019-12-03 10:00:00 9.4 9 Norte 15 Nordeste 0 -- -- 88
2019-12-03 09:00:00 9.3 10 Nordeste 15 Norte 0 -- -- 86
2019-12-03 08:00:00 9.4 5 Norte 10 Nordeste 0 -- -- 87
2019-12-03 07:00:00 9.3 5 Nordeste 16 Norte 0 -- -- 88
2019-12-03 06:00:00 10 11 Norte 17 Nordeste 0 -- -- 86
2019-12-03 05:00:00 10.6 10 Este 19 Nordeste 0 -- -- 85
2019-12-03 04:00:00 10.9 14 Nordeste 24 Nordeste 0 -- -- 83
2019-12-03 03:00:00 11 13 Nordeste 23 Nordeste 0 -- -- 83
2019-12-03 02:00:00 10.6 12 Nordeste 19 Nordeste 0 -- -- 87
2019-12-03 01:00:00 9.8 6 Norte 12 Nordeste 0 -- -- 87
2019-12-03 00:00:00 10.3 5 Norte 23 Nordeste 0 -- -- 84
2019-12-02 23:00:00 11.4 13 Nordeste 31 Nordeste 0 -- -- 80
2019-12-02 22:00:00 11.1 12 Nordeste 22 Nordeste 0 -- -- 82
2019-12-02 21:00:00 11.9 15 Nordeste 27 Nordeste 0 -- -- 80
2019-12-02 20:00:00 12 11 Nordeste 27 Nordeste 0 -- -- 79
2019-12-02 19:00:00 12.9 19 Nordeste 29 Nordeste 0 -- -- 75
2019-12-02 18:00:00 13.5 11 Nordeste 23 Nordeste 0 -- -- 74
2019-12-02 17:00:00 15 16 Nordeste 32 Nordeste 0 -- -- 67
2019-12-02 16:00:00 15.2 18 Nordeste 31 Este 0 -- -- 67
2019-12-02 15:00:00 15.2 20 Nordeste 31 Nordeste 0 -- -- 69
2019-12-02 14:00:00 14.1 23 Nordeste 32 Nordeste 0 -- -- 72
2019-12-02 13:00:00 13.5 22 Nordeste 38 Nordeste 0 -- -- 79
2019-12-02 12:00:00 12.8 25 Nordeste 39 Este 0 -- -- 80
2019-12-02 11:00:00 11.7 24 Nordeste 32 Nordeste 0 -- -- 85
2019-12-02 10:00:00 10 16 Nordeste 22 Nordeste 0 -- -- 94
2019-12-02 09:00:00 9 4 Este 18 Nordeste 0 -- -- 96
2019-12-02 08:00:00 9.4 12 Nordeste 24 Este 0 -- -- 97
2019-12-02 07:00:00 9.4 13 Nordeste 21 Nordeste 0 -- -- 98
2019-12-02 06:00:00 9.5 13 Nordeste 19 Este 0.4 -- -- 98
2019-12-02 05:00:00 9.5 8 Este 17 Nordeste 0 -- -- 98
2019-12-02 04:00:00 9.3 11 Este 18 Este 0.8 -- -- 99
2019-12-02 03:00:00 9.2 12 Este 22 Este 0.2 -- -- 99
2019-12-02 02:00:00 9 12 Nordeste 19 Nordeste 2.2 -- -- 99
2019-12-02 01:00:00 9.1 3 Norte 7 Norte 2.6 -- -- 99
2019-12-02 00:00:00 9.1 5 Oeste 10 Oeste 2.8 -- -- 98
2019-12-01 23:00:00 9.3 3 Oeste 17 Sudoeste 8.4 -- -- 98
2019-12-01 22:00:00 10.5 3 Sur 8 Sudeste 0.4 -- -- 98
2019-12-01 21:00:00 10.7 4 Sur 13 Sur 0 -- -- 97
2019-12-01 20:00:00 11 7 Sur 13 Sur 0 -- -- 97
2019-12-01 19:00:00 11.3 4 Sur 8 Sur 0 -- -- 97
2019-12-01 18:00:00 11.4 4 Sudoeste 18 Sur 0.4 -- -- 96
2019-12-01 17:00:00 11.6 12 Sur 31 Sur 2.8 -- -- 96
2019-12-01 16:00:00 12.4 16 Sur 29 Sur 0.6 -- -- 90
2019-12-01 15:00:00 12 8 Sur 24 Sudoeste 0.6 -- -- 92
2019-12-01 14:00:00 13.4 10 Sudoeste 24 Sur 0 -- -- 83
2019-12-01 13:00:00 12.8 13 Sur 27 Sudoeste 0 -- -- 91
2019-12-01 12:00:00 12.3 8 Sudoeste 15 Sudoeste 0 -- -- 94
2019-12-01 11:00:00 11.3 8 Sur 16 Sur 0 -- -- 98
2019-12-01 10:00:00 10.4 4 Sudoeste 16 Oeste 0 -- -- 99
2019-12-01 09:00:00 10.4 3 Oeste 8 Sur 0 -- -- 99
2019-12-01 08:00:00 10.1 3 Sur 9 Sudoeste 0 -- -- 98
2019-12-01 07:00:00 10.7 8 Oeste 15 Oeste 0 -- -- 99
2019-12-01 06:00:00 11.3 8 Oeste 17 Sudoeste 0 -- -- 98
2019-12-01 05:00:00 11.6 9 Oeste 19 Oeste 0 -- -- 98
2019-12-01 04:00:00 12.1 5 Sudoeste 20 Oeste 0 -- -- 97
2019-12-01 03:00:00 12.6 8 Sudoeste 35 Sudoeste 0.4 -- -- 97
2019-12-01 02:00:00 12.8 12 Sudoeste 24 Sur 1.2 -- -- 95
2019-12-01 01:00:00 13.6 12 Sudoeste 23 Sudoeste 0 -- -- 88
2019-12-01 00:00:00 13.8 13 Sudoeste 24 Sudoeste 0 -- -- 86
2019-11-30 23:00:00 13.5 8 Sur 14 Sudoeste 0 -- -- 88
2019-11-30 22:00:00 13.6 8 Sudoeste 17 Sudoeste 0 -- -- 86
2019-11-30 21:00:00 13.7 6 Sur 16 Sudoeste 0 -- -- 86
2019-11-30 20:00:00 14.2 9 Sudoeste 20 Sudoeste 0 -- -- 82
2019-11-30 19:00:00 14.5 10 Sudoeste 21 Sudoeste 0 -- -- 82
2019-11-30 18:00:00 16 11 Sudoeste 23 Sudoeste 0 -- -- 76
2019-11-30 17:00:00 17.7 11 Sudoeste 20 Sudoeste 0 -- -- 69
2019-11-30 16:00:00 17.9 9 Sudoeste 15 Sudoeste 0 -- -- 72
2019-11-30 15:00:00 18 8 Sudoeste 15 Sudoeste 0 -- -- 70
2019-11-30 14:00:00 17.5 2 Sur 9 Norte 0 -- -- 73
2019-11-30 13:00:00 15.1 4 Norte 13 Norte 0 -- -- 80
2019-11-30 12:00:00 13.8 5 Nordeste 14 Nordeste 0 -- -- 86
2019-11-30 11:00:00 11.7 6 Nordeste 13 Norte 0 -- -- 95
2019-11-30 10:00:00 9.5 6 Norte 14 Norte 0 -- -- 99
2019-11-30 09:00:00 8.5 6 Nordeste 10 Nordeste 0 -- -- 100
2019-11-30 08:00:00 7.6 5 Nordeste 11 Norte 0 -- -- 99
2019-11-30 07:00:00 7.8 9 Norte 12 Norte 0 -- -- 98
2019-11-30 06:00:00 8.8 8 Norte 15 Nordeste 0 -- -- 98
2019-11-30 05:00:00 8.8 10 Norte 12 Norte 0 -- -- 98
2019-11-30 04:00:00 9.3 7 Norte 10 Norte 0 -- -- 97
2019-11-30 03:00:00 9.5 4 Nordeste 9 Nordeste 0 -- -- 96
2019-11-30 02:00:00 9.7 7 Nordeste 10 Norte 0 -- -- 96
2019-11-30 01:00:00 10.2 9 Norte 11 Nordeste 0 -- -- 95
2019-11-30 00:00:00 10.6 9 Norte 11 Norte 0 -- -- 93
2019-11-29 23:00:00 11.6 6 Nordeste 11 Nordeste 0 -- -- 90
2019-11-29 22:00:00 12.6 9 Nordeste 12 Nordeste 0 -- -- 86
2019-11-29 21:00:00 12.9 5 Nordeste 10 Este 0 -- -- 85
2019-11-29 20:00:00 13 4 Este 10 Nordeste 0 -- -- 86
2019-11-29 19:00:00 14.2 9 Nordeste 12 Nordeste 0 -- -- 81
2019-11-29 18:00:00 15.6 6 Este 15 Este 0 -- -- 76
2019-11-29 17:00:00 16.8 9 Nordeste 15 Nordeste 0 -- -- 70
2019-11-29 16:00:00 17.3 6 Este 17 Nordeste 0 -- -- 69
2019-11-29 15:00:00 17 8 Nordeste 17 Nordeste 0 -- -- 67
2019-11-29 14:00:00 17 8 Nordeste 17 Nordeste 0 -- -- 68
2019-11-29 13:00:00 16 6 Nordeste 12 Norte 0 -- -- 75
2019-11-29 12:00:00 14.7 5 Norte 10 Norte 0 -- -- 81
2019-11-29 11:00:00 12.8 0 Calma 4 Norte 0 -- -- 87
2019-11-29 10:00:00 10.6 0 Calma 6 Nordeste 0 -- -- 91
2019-11-29 09:00:00 8.7 4 Nordeste 8 Nordeste 0 -- -- 97
2019-11-29 08:00:00 8.4 2 Nordeste 6 Norte 0 -- -- 97
2019-11-29 07:00:00 8.6 2 Noroeste 5 Sur 0 -- -- 97
2019-11-29 06:00:00 8.6 0 Calma 6 Norte 0 -- -- 97
2019-11-29 05:00:00 8.7 2 Norte 8 Nordeste 0 -- -- 96
2019-11-29 04:00:00 9.1 2 Este 9 Este 0 -- -- 96
2019-11-29 03:00:00 9.8 3 Nordeste 8 Norte 0 -- -- 96
2019-11-29 02:00:00 10.2 2 Oeste 5 Sudoeste 0 -- -- 95
2019-11-29 01:00:00 11 3 Sur 4 Sudoeste 0 -- -- 93
2019-11-29 00:00:00 11.5 3 Sudeste 9 Este 0 -- -- 91
2019-11-28 23:00:00 12.2 4 Este 7 Norte 0 -- -- 93
2019-11-28 22:00:00 12.4 4 Norte 8 Nordeste 0 -- -- 93
2019-11-28 21:00:00 13 3 Norte 8 Norte 0 -- -- 89
2019-11-28 20:00:00 13.4 3 Sur 9 Norte 0 -- -- 85
2019-11-28 19:00:00 13.6 0 Calma 6 Sudeste 0 -- -- 84
2019-11-28 18:00:00 14.5 0 Calma 7 Sur 0 -- -- 77
2019-11-28 17:00:00 15.2 0 Calma 7 Sur 0 -- -- 75
2019-11-28 16:00:00 14.6 3 Norte 8 Noroeste 0 -- -- 79
2019-11-28 15:00:00 14.7 0 Calma 8 Norte 0 -- -- 86
2019-11-28 14:00:00 13.8 4 Norte 10 Noroeste 0 -- -- 90
2019-11-28 13:00:00 12.8 7 Norte 11 Norte 0 -- -- 94
2019-11-28 12:00:00 12.2 4 Nordeste 8 Norte 0 -- -- 97
2019-11-28 11:00:00 11.5 3 Noroeste 8 Oeste 0 -- -- 100
2019-11-28 10:00:00 10.9 2 Este 6 Este 0 -- -- 100
2019-11-28 09:00:00 10.3 2 Este 7 Este 0 -- -- 100
2019-11-28 08:00:00 10.4 2 Este 9 Sudoeste 0.2 -- -- 100
2019-11-28 07:00:00 10.7 4 Sudoeste 10 Oeste 0 -- -- 99
2019-11-28 06:00:00 10.8 4 Sudoeste 8 Oeste 0 -- -- 98
2019-11-28 05:00:00 11.3 5 Sudoeste 11 Sur 0 -- -- 98
2019-11-28 04:00:00 11.5 2 Sudoeste 8 Sur 0 -- -- 98
2019-11-28 03:00:00 11.1 3 Nordeste 9 Sur 0 -- -- 98
2019-11-28 02:00:00 11.5 6 Sur 10 Sudoeste 0 -- -- 97
2019-11-28 01:00:00 11.9 7 Sudoeste 10 Sudoeste 0 -- -- 96
2019-11-28 00:00:00 12.5 6 Sur 11 Sur 0 -- -- 95
2019-11-27 23:00:00 12.6 5 Sur 10 Sur 0 -- -- 95
2019-11-27 22:00:00 13.1 8 Sur 15 Sudoeste 0 -- -- 93
2019-11-27 21:00:00 12.9 9 Sudoeste 12 Sudoeste 0 -- -- 93
2019-11-27 20:00:00 13.2 8 Sudoeste 12 Sur 0 -- -- 91
2019-11-27 19:00:00 13.7 6 Sudoeste 15 Sudoeste 0 -- -- 90
2019-11-27 18:00:00 15 8 Sur 22 Sur 0 -- -- 85
2019-11-27 17:00:00 16.4 13 Sudoeste 29 Sudoeste 0 -- -- 78
2019-11-27 16:00:00 17 17 Sudoeste 27 Sudoeste 0 -- -- 75
2019-11-27 15:00:00 17.2 12 Sudoeste 26 Sudoeste 0 -- -- 72
2019-11-27 14:00:00 15.5 12 Oeste 19 Oeste 0 -- -- 87
2019-11-27 06:00:00 13.8 14 Sudoeste 25 Sudoeste 0 -- -- 98
2019-11-27 05:00:00 14 15 Sudoeste 30 Sudoeste 0 -- -- 98
2019-11-27 04:00:00 14.3 15 Sudoeste 31 Sudoeste 0 -- -- 98
2019-11-27 03:00:00 14.3 17 Sudoeste 36 Sudoeste 0 -- -- 99
2019-11-27 02:00:00 14.3 17 Sudoeste 32 Sudoeste 0.2 -- -- 99
2019-11-27 01:00:00 14.2 13 Sudoeste 28 Sudoeste 0.6 -- -- 98
2019-11-27 00:00:00 14.4 15 Sudoeste 27 Sudoeste 1 -- -- 98
2019-11-26 23:00:00 14.9 16 Sudoeste 30 Sudoeste 0.2 -- -- 95
2019-11-26 22:00:00 15.2 18 Sudoeste 32 Sudoeste 0 -- -- 93
2019-11-26 21:00:00 15.1 10 Sur 19 Sur 0 -- -- 95
2019-11-26 20:00:00 15.2 12 Sur 17 Sudoeste 0 -- -- 96
2019-11-26 19:00:00 15.5 8 Sudoeste 20 Sudoeste 0 -- -- 95
2019-11-26 18:00:00 15.6 14 Oeste 22 Sudoeste 0 -- -- 94
2019-11-26 17:00:00 15.7 4 Sudoeste 17 Sudoeste 0.2 -- -- 95
2019-11-26 16:00:00 16.1 13 Oeste 21 Sudoeste 0 -- -- 90
2019-11-26 15:00:00 16.9 10 Sur 14 Sur 0 -- -- 85
2019-11-26 14:00:00 16.5 3 Sudoeste 11 Oeste 0 -- -- 85
2019-11-26 13:00:00 15.6 4 Sudoeste 8 Sudoeste 0 -- -- 88
2019-11-26 12:00:00 14.8 2 Sudoeste 6 Sudoeste 0 -- -- 98
2019-11-26 11:00:00 13.8 3 Sudoeste 6 Sudeste 0 -- -- 100
2019-11-26 10:00:00 13.2 3 Sur 8 Sudoeste 0 -- -- 100
2019-11-26 09:00:00 12.9 2 Sur 8 Oeste 0 -- -- 100
2019-11-26 08:00:00 12.9 5 Sudoeste 8 Sudoeste 0 -- -- 100
2019-11-26 07:00:00 12.8 0 Calma 6 Oeste 0 -- -- 100
2019-11-26 06:00:00 13 3 Sudoeste 9 Sudoeste 0 -- -- 100
2019-11-26 05:00:00 13.6 3 Sudoeste 9 Sudoeste 0 -- -- 100
2019-11-26 04:00:00 13.9 4 Sudoeste 10 Sur 0 -- -- 100
2019-11-26 03:00:00 14.1 4 Sudoeste 9 Sudoeste 0 -- -- 100
2019-11-26 02:00:00 14.5 4 Sudoeste 8 Sudoeste 0 -- -- 100
2019-11-26 01:00:00 14.5 4 Sur 9 Sudoeste 0 -- -- 100
2019-11-26 00:00:00 14.7 5 Sudoeste 13 Sudoeste 0 -- -- 100
2019-11-25 23:00:00 14.8 5 Sudoeste 10 Sudoeste 0 -- -- 100
2019-11-25 22:00:00 14.9 6 Sudoeste 15 Sudoeste 0 -- -- 100
2019-11-25 21:00:00 14.8 6 Sudoeste 10 Sudoeste 0 -- -- 100
2019-11-25 20:00:00 14.8 4 Sudoeste 8 Oeste 0 -- -- 99
2019-11-25 19:00:00 14.8 4 Sudoeste 8 Sudoeste 0 -- -- 99
2019-11-25 18:00:00 14.8 4 Sudoeste 10 Sudoeste 0 -- -- 99
2019-11-25 17:00:00 14.6 6 Sudoeste 12 Sudoeste 0.6 -- -- 99
2019-11-25 16:00:00 14.3 7 Oeste 13 Sudoeste 0.2 -- -- 99
2019-11-25 15:00:00 14.1 7 Sudoeste 13 Sudoeste 0.2 -- -- 99
2019-11-25 14:00:00 13.2 3 Oeste 15 Oeste 0.6 -- -- 99
2019-11-25 13:00:00 13.5 10 Oeste 17 Sudoeste 0.4 -- -- 99
2019-11-25 12:00:00 13 9 Sudoeste 17 Sudoeste 0.2 -- -- 99
2019-11-25 11:00:00 12.4 8 Sudoeste 17 Sudoeste 0.4 -- -- 99
2019-11-25 10:00:00 11.9 8 Sudoeste 17 Sur 0.4 -- -- 99
2019-11-25 09:00:00 11.4 8 Sur 15 Sur 0.4 -- -- 98
2019-11-25 08:00:00 11.4 6 Sudoeste 14 Sur 0.2 -- -- 97
2019-11-25 07:00:00 11.2 5 Sudoeste 15 Sur 0 -- -- 97
2019-11-25 06:00:00 10.9 4 Sur 8 Sur 0 -- -- 96
2019-11-25 05:00:00 10.9 4 Sudoeste 8 Sudoeste 0 -- -- 94
2019-11-25 04:00:00 11.1 2 Sur 9 Sur 0 -- -- 92
2019-11-25 03:00:00 10.9 8 Sur 14 Sur 0 -- -- 91
2019-11-25 02:00:00 10.6 6 Sur 10 Sur 0 -- -- 91
2019-11-25 01:00:00 10.4 5 Sur 12 Sur 0 -- -- 90
2019-11-25 00:00:00 10.7 5 Sur 11 Sudoeste 0 -- -- 88
2019-11-24 23:00:00 11.3 6 Sur 11 Sur 0 -- -- 85
2019-11-24 22:00:00 11 4 Sur 7 Sur 0 -- -- 85
2019-11-24 21:00:00 10.8 3 Sudoeste 10 Sur 0 -- -- 86
2019-11-24 20:00:00 11.2 6 Sur 10 Sur 0 -- -- 85
2019-11-24 19:00:00 11.2 3 Sur 12 Sudoeste 0 -- -- 84
2019-11-24 18:00:00 12.4 8 Sudoeste 13 Sudoeste 0 -- -- 78
2019-11-24 17:00:00 13.4 5 Sur 18 Sudoeste 0 -- -- 74
2019-11-24 16:00:00 14.1 12 Sudoeste 21 Sudoeste 0 -- -- 70
2019-11-24 15:00:00 13.5 8 Sudoeste 17 Sudoeste 0 -- -- 72
2019-11-24 14:00:00 12.8 8 Sudoeste 15 Sudoeste 0 -- -- 74
2019-11-24 13:00:00 11.7 9 Sudoeste 15 Oeste 0 -- -- 81
2019-11-24 12:00:00 10.4 8 Sudoeste 15 Sudoeste 0 -- -- 84
2019-11-24 11:00:00 9.3 6 Sudoeste 12 Sur 0 -- -- 86
2019-11-24 10:00:00 7.9 5 Sudoeste 8 Sur 0 -- -- 92
2019-11-24 09:00:00 6.1 4 Sur 9 Sur 0 -- -- 96
2019-11-24 08:00:00 5.8 6 Sur 8 Sur 0 -- -- 96
2019-11-24 07:00:00 5.6 5 Sudoeste 10 Sudoeste 0 -- -- 94
2019-11-24 06:00:00 6 7 Sudoeste 13 Sudoeste 0 -- -- 94
2019-11-24 05:00:00 6.6 9 Sur 14 Sudoeste 0 -- -- 92
2019-11-24 04:00:00 6.4 6 Sudoeste 9 Sudoeste 0 -- -- 92
2019-11-24 03:00:00 7.1 6 Sur 10 Sudoeste 0 -- -- 89
2019-11-24 02:00:00 7.2 4 Sudoeste 9 Sur 0 -- -- 87
2019-11-24 01:00:00 7.9 4 Sudoeste 13 Sur 0 -- -- 85
2019-11-24 00:00:00 8.5 8 Sudoeste 13 Sudoeste 0 -- -- 83
2019-11-23 23:00:00 8.7 4 Sur 10 Sur 0 -- -- 82
2019-11-23 22:00:00 8.9 5 Sudoeste 9 Sudoeste 0 -- -- 83
2019-11-23 21:00:00 9.6 6 Oeste 13 Oeste 0 -- -- 80
2019-11-23 20:00:00 10.4 11 Oeste 19 Oeste 0 -- -- 76
2019-11-23 19:00:00 11.3 11 Oeste 18 Oeste 0 -- -- 75
2019-11-23 18:00:00 12.7 13 Oeste 29 Oeste 0 -- -- 67
2019-11-23 17:00:00 14.7 21 Oeste 39 Oeste 0 -- -- 58
2019-11-23 16:00:00 15.1 22 Oeste 37 Oeste 0 -- -- 56
2019-11-23 15:00:00 14.9 23 Oeste 47 Oeste 0 -- -- 58
2019-11-23 14:00:00 14.4 32 Oeste 45 Oeste 0 -- -- 58
2019-11-23 13:00:00 13.7 29 Oeste 43 Oeste 0 -- -- 67
2019-11-23 12:00:00 13 25 Oeste 40 Sudoeste 0 -- -- 76
2019-11-23 11:00:00 12 21 Sudoeste 37 Oeste 0 -- -- 81
2019-11-23 10:00:00 11.2 18 Sudoeste 34 Sudoeste 0 -- -- 85
2019-11-23 09:00:00 10 12 Sudoeste 28 Sudoeste 0 -- -- 90
2019-11-23 08:00:00 10.4 17 Sudoeste 30 Sudoeste 0 -- -- 93
2019-11-23 07:00:00 10.6 13 Sudoeste 36 Sudoeste 0 -- -- 93
2019-11-23 06:00:00 11 19 Sudoeste 39 Oeste 0 -- -- 91
2019-11-23 05:00:00 10.7 31 Oeste 54 Oeste 1.8 -- -- 85
2019-11-23 04:00:00 12.2 28 Sudoeste 54 Sudoeste 0.2 -- -- 89
2019-11-23 03:00:00 12.4 29 Sudoeste 50 Sudoeste 0 -- -- 88
2019-11-23 02:00:00 12.3 23 Sudoeste 40 Sudoeste 0 -- -- 91
2019-11-23 01:00:00 12.5 24 Sudoeste 41 Sudoeste 0 -- -- 92
2019-11-23 00:00:00 12.7 21 Sudoeste 39 Sudoeste 0 -- -- 91
2019-11-22 23:00:00 13 20 Sudoeste 37 Sudoeste 0 -- -- 89
2019-11-22 22:00:00 12.8 17 Sur 31 Oeste 0 -- -- 92
2019-11-22 21:00:00 13.4 21 Sudoeste 38 Sudoeste 0 -- -- 91
2019-11-22 20:00:00 14.3 21 Sudoeste 41 Sudoeste 0 -- -- 92
2019-11-22 19:00:00 15.3 36 Oeste 59 Sudoeste 3.2 -- -- 84
2019-11-22 18:00:00 15.8 38 Sudoeste 67 Sudoeste 8.2 -- -- 98
2019-11-22 17:00:00 15 29 Sudoeste 51 Sudoeste 8.6 -- -- 98
2019-11-22 16:00:00 14.8 24 Sudoeste 52 Sudoeste 18 -- -- 99
2019-11-22 15:00:00 14.4 23 Sudoeste 48 Sur 5.2 -- -- 96
2019-11-22 14:00:00 14.8 24 Sur 44 Sur 3.4 -- -- 94
2019-11-22 13:00:00 14.8 26 Sur 46 Sur 1.8 -- -- 94
2019-11-22 12:00:00 14.9 24 Sur 35 Sur 0 -- -- 95
2019-11-22 11:00:00 14 13 Sur 23 Sur 0.8 -- -- 99
2019-11-22 10:00:00 13 7 Sur 12 Sur 0 -- -- 99
2019-11-22 09:00:00 12.4 3 Sur 12 Sudeste 0 -- -- 99
2019-11-22 08:00:00 12.1 5 Sudeste 12 Este 0.8 -- -- 100
2019-11-22 07:00:00 12 0 Calma 4 Sudeste 0 -- -- 99
2019-11-22 06:00:00 12 2 Oeste 6 Sudoeste 0 -- -- 99
2019-11-22 05:00:00 11.9 3 Sudoeste 6 Sudoeste 0 -- -- 99
2019-11-22 04:00:00 11.9 3 Sur 9 Sudoeste 0.2 -- -- 99
2019-11-22 03:00:00 11.9 3 Sur 8 Sudoeste 0 -- -- 99
2019-11-22 02:00:00 11.7 3 Sur 7 Sur 2.4 -- -- 99
2019-11-22 01:00:00 11.8 4 Sur 9 Sur 1.6 -- -- 99
2019-11-22 00:00:00 11.8 2 Sur 8 Sur 1.4 -- -- 99
2019-11-21 23:00:00 11.8 2 Sur 10 Sudeste 0.8 -- -- 98
2019-11-21 22:00:00 11.8 5 Sur 10 Sur 0 -- -- 98
2019-11-21 21:00:00 12 4 Sudoeste 6 Sudoeste 0 -- -- 97
2019-11-21 20:00:00 12 2 Sur 6 Sur 0 -- -- 97
2019-11-21 19:00:00 12.2 4 Sur 10 Sur 0.2 -- -- 97
2019-11-21 18:00:00 12.5 5 Sur 8 Sudeste 0.2 -- -- 97
2019-11-21 17:00:00 12.5 3 Este 5 Este 2 -- -- 96
2019-11-21 16:00:00 12.5 0 Calma 4 Sudoeste 1.4 -- -- 95
2019-11-21 15:00:00 12.4 6 Sudoeste 17 Sudoeste 2.8 -- -- 95
2019-11-21 14:00:00 12.9 12 Sudoeste 21 Sudoeste 0.2 -- -- 93
2019-11-21 13:00:00 12.3 3 Sur 17 Sur 0.6 -- -- 97
2019-11-21 12:00:00 11.9 10 Sur 18 Sudoeste 0.6 -- -- 97
2019-11-21 11:00:00 11.4 5 Sudoeste 9 Sur 0 -- -- 98
2019-11-21 10:00:00 10.7 3 Sudeste 7 Sur 1.6 -- -- 98
2019-11-21 09:00:00 10.4 0 Calma 5 Sudoeste 0 -- -- 98
2019-11-21 08:00:00 10.2 3 Sudoeste 8 Sudoeste 1.4 -- -- 98
2019-11-21 07:00:00 10 0 Calma 2 Sudoeste 0.2 -- -- 98
2019-11-21 06:00:00 9.9 2 Sur 4 Sudoeste 1.4 -- -- 97
2019-11-21 05:00:00 9.8 2 Sudoeste 5 Sur 0.2 -- -- 97
2019-11-21 04:00:00 9.9 0 Calma 10 Sur 0 -- -- 97
2019-11-21 03:00:00 9.7 7 Sur 12 Sur 0 -- -- 97
2019-11-21 02:00:00 9.6 6 Sudoeste 15 Sudoeste 0 -- -- 98
2019-11-21 01:00:00 9.6 8 Sur 14 Sur 0.6 -- -- 98
2019-11-21 00:00:00 9.4 8 Sur 12 Sur 0.4 -- -- 97
2019-11-20 23:00:00 9 5 Sur 10 Sur 0 -- -- 97
2019-11-20 22:00:00 8.6 0 Calma 6 Oeste 0 -- -- 97
2019-11-20 21:00:00 8.6 4 Noroeste 25 Oeste 0.2 -- -- 97
2019-11-20 20:00:00 8.7 6 Este 11 Este 0 -- -- 96
2019-11-20 19:00:00 8.4 8 Norte 19 Norte 0.8 -- -- 96
2019-11-20 18:00:00 9.4 6 Norte 12 Nordeste 0.2 -- -- 92
2019-11-20 17:00:00 9.9 9 Nordeste 15 Nordeste 0 -- -- 88
2019-11-20 16:00:00 9.4 8 Nordeste 12 Nordeste 0 -- -- 92
2019-11-20 15:00:00 8.8 5 Nordeste 10 Nordeste 0 -- -- 94
2019-11-20 14:00:00 8.3 4 Nordeste 11 Norte 0.6 -- -- 94
2019-11-20 13:00:00 8.4 6 Norte 15 Norte 0.2 -- -- 93
2019-11-20 12:00:00 8.2 6 Norte 10 Norte 0 -- -- 91
2019-11-20 11:00:00 7.1 2 Nordeste 5 Nordeste 0 -- -- 91
2019-11-20 10:00:00 5.3 0 Calma 8 Nordeste 0 -- -- 95
2019-11-20 09:00:00 3.2 4 Nordeste 8 Nordeste 0 -- -- 98
2019-11-20 08:00:00 2.8 3 Norte 8 Norte 0 -- -- 97
2019-11-20 07:00:00 3.2 6 Norte 12 Norte 0 -- -- 96
2019-11-20 06:00:00 4.5 8 Nordeste 13 Nordeste 0 -- -- 95
2019-11-20 05:00:00 4.1 8 Nordeste 10 Norte 0 -- -- 96
2019-11-20 04:00:00 4.5 3 Nordeste 6 Nordeste 0 -- -- 95
2019-11-20 03:00:00 5.3 4 Nordeste 9 Norte 0 -- -- 95
2019-11-20 02:00:00 6 6 Norte 10 Nordeste 0 -- -- 91
2019-11-20 01:00:00 6.9 6 Nordeste 11 Nordeste 0 -- -- 90
2019-11-20 00:00:00 7.8 8 Nordeste 10 Nordeste 0 -- -- 88
2019-11-19 23:00:00 8.2 4 Norte 6 Nordeste 0 -- -- 86
2019-11-19 22:00:00 8.5 5 Norte 6 Norte 0 -- -- 84
2019-11-19 21:00:00 8.9 0 Calma 4 Sudeste 0 -- -- 82
2019-11-19 20:00:00 9.4 4 Este 5 Este 0 -- -- 80
2019-11-19 19:00:00 10.4 2 Este 4 Este 0 -- -- 79
2019-11-19 18:00:00 12.3 0 Calma 3 Oeste 0 -- -- 73
2019-11-19 17:00:00 13 0 Calma 8 Oeste 0 -- -- 64
2019-11-19 16:00:00 13.3 3 Nordeste 9 Oeste 0 -- -- 69
2019-11-19 15:00:00 11.9 2 Oeste 5 Nordeste 0 -- -- 74
2019-11-19 14:00:00 11.2 3 Norte 7 Noroeste 0 -- -- 78
2019-11-19 13:00:00 10.4 4 Norte 10 Nordeste 0 -- -- 76
2019-11-19 12:00:00 9.4 5 Nordeste 12 Nordeste 0 -- -- 80
2019-11-19 11:00:00 7.9 7 Nordeste 12 Nordeste 0 -- -- 88
2019-11-19 10:00:00 5.2 4 Nordeste 6 Nordeste 0 -- -- 96
2019-11-19 09:00:00 3.3 2 Nordeste 4 Norte 0 -- -- 96
2019-11-19 08:00:00 3.3 0 Calma 6 Nordeste 0 -- -- 96
2019-11-19 07:00:00 3.7 4 Norte 5 Norte 0 -- -- 95
2019-11-19 06:00:00 4 2 Oeste 8 Nordeste 0 -- -- 94
2019-11-19 05:00:00 4.6 6 Nordeste 8 Nordeste 0 -- -- 93
2019-11-19 04:00:00 5.1 6 Nordeste 8 Nordeste 0 -- -- 94
2019-11-19 03:00:00 5 0 Calma 2 Norte 0 -- -- 94
2019-11-19 02:00:00 5.5 0 Calma 3 Sudoeste 0 -- -- 94
2019-11-19 01:00:00 5.8 3 Este 6 Este 0 -- -- 92
2019-11-19 00:00:00 6.4 0 Calma 5 Sudoeste 0 -- -- 92
2019-11-18 23:00:00 7.4 4 Sudoeste 12 Sur 0 -- -- 89
2019-11-18 22:00:00 8.5 3 Sudoeste 5 Norte 0 -- -- 80
2019-11-18 21:00:00 9.4 0 Calma 5 Sudoeste 0 -- -- 82
2019-11-18 20:00:00 10.5 4 Sudeste 7 Sudoeste 0 -- -- 80
2019-11-18 19:00:00 11.8 5 Sudoeste 9 Sudoeste 0 -- -- 74
2019-11-18 18:00:00 14.4 2 Sur 5 Sur 0 -- -- 60
2019-11-18 17:00:00 14.5 0 Calma 8 Sudeste 0 -- -- 57
2019-11-18 16:00:00 14.2 3 Norte 9 Este 0 -- -- 58
2019-11-18 15:00:00 14 3 Norte 13 Norte 0 -- -- 63
2019-11-18 14:00:00 12.6 6 Norte 17 Noroeste 0 -- -- 64
2019-11-18 13:00:00 12.2 9 Norte 17 Norte 0 -- -- 67
2019-11-18 12:00:00 11.3 6 Noroeste 13 Noroeste 0 -- -- 76
2019-11-18 11:00:00 9.8 6 Noroeste 13 Oeste 0 -- -- 83
2019-11-18 10:00:00 8.4 4 Sudoeste 7 Sudoeste 0 -- -- 88
2019-11-18 09:00:00 7.2 3 Sudoeste 11 Noroeste 0 -- -- 90
2019-11-18 08:00:00 6.9 7 Noroeste 12 Oeste 0 -- -- 89
2019-11-18 07:00:00 7.5 3 Noroeste 15 Norte 0 -- -- 88
2019-11-18 06:00:00 8.3 5 Noroeste 18 Noroeste 0 -- -- 88
2019-11-18 05:00:00 9.8 11 Noroeste 22 Noroeste 0 -- -- 93
2019-11-18 04:00:00 11.5 10 Noroeste 37 Oeste 2.6 -- -- 98
2019-11-18 03:00:00 11.9 25 Oeste 48 Sudoeste 2.2 -- -- 98
2019-11-18 02:00:00 12.1 24 Sudoeste 41 Sudoeste 4.4 -- -- 98
2019-11-18 01:00:00 12.1 24 Sudoeste 39 Sudoeste 2.2 -- -- 99
2019-11-18 00:00:00 12.1 21 Sudoeste 38 Sudoeste 1.8 -- -- 99
2019-11-17 23:00:00 10.4 12 Oeste 23 Oeste 0.4 -- -- 99
2019-11-17 22:00:00 9.2 8 Sudoeste 16 Sudoeste 0.2 -- -- 100
2019-11-17 21:00:00 7.8 3 Norte 9 Noroeste 3.2 -- -- 99
2019-11-17 20:00:00 7.5 0 Calma 6 Este 2 -- -- 99
2019-11-17 19:00:00 7.2 4 Norte 7 Norte 0.4 -- -- 99
2019-11-17 18:00:00 7.3 3 Norte 11 Norte 0 -- -- 98
2019-11-17 17:00:00 7.9 5 Norte 10 Sudoeste 0.6 -- -- 97
2019-11-17 16:00:00 8.3 8 Sudoeste 15 Sudoeste 0.4 -- -- 98
2019-11-17 15:00:00 7.9 12 Sudoeste 19 Sudoeste 0 -- -- 97
2019-11-17 14:00:00 7.6 9 Sudoeste 21 Sudoeste 0.2 -- -- 97
2019-11-17 13:00:00 7.3 12 Sudoeste 22 Sudoeste 0.4 -- -- 96
2019-11-17 12:00:00 6.4 8 Sudoeste 22 Sudoeste 1 -- -- 94
2019-11-17 11:00:00 6.7 8 Sudoeste 15 Sudoeste 0 -- -- 85
2019-11-17 10:00:00 6.1 5 Sudoeste 10 Sudoeste 0 -- -- 81
2019-11-17 09:00:00 4.1 2 Sudoeste 6 Sur 0 -- -- 82
2019-11-17 08:00:00 3.6 4 Oeste 5 Oeste 0 -- -- 83
2019-11-17 07:00:00 2.4 2 Sur 5 Sur 0 -- -- 84
2019-11-17 06:00:00 3.1 5 Sudoeste 7 Sudoeste 0 -- -- 82
2019-11-17 05:00:00 3.5 3 Sudoeste 6 Sudoeste 0 -- -- 81
2019-11-17 04:00:00 4 3 Sudoeste 13 Sudoeste 0 -- -- 78
2019-11-17 03:00:00 4.8 7 Sudoeste 13 Sur 0 -- -- 75
2019-11-17 02:00:00 4.5 5 Sudoeste 9 Sur 0 -- -- 72
2019-11-17 01:00:00 5 3 Sudoeste 9 Sudoeste 0 -- -- 70
2019-11-17 00:00:00 5.9 7 Sur 10 Sur 0 -- -- 67
2019-11-16 23:00:00 6.2 5 Sur 10 Sur 0 -- -- 66
2019-11-16 22:00:00 6.8 6 Sur 10 Sur 0 -- -- 63
2019-11-16 21:00:00 7.4 6 Sur 10 Sur 0 -- -- 62
2019-11-16 20:00:00 8 6 Sudoeste 10 Sudoeste 0 -- -- 58
2019-11-16 19:00:00 9.5 7 Sudoeste 15 Sudoeste 0 -- -- 53
2019-11-16 18:00:00 11.4 11 Sudoeste 22 Sudoeste 0 -- -- 48
2019-11-16 17:00:00 12.7 15 Sudoeste 23 Sudoeste 0 -- -- 46
2019-11-16 16:00:00 12.8 11 Sudoeste 22 Sudoeste 0 -- -- 45
2019-11-16 15:00:00 12.4 8 Sur 17 Sudoeste 0 -- -- 48
2019-11-16 14:00:00 11.4 6 Sudoeste 15 Sudoeste 0 -- -- 51
2019-11-16 13:00:00 9.8 6 Oeste 13 Sudoeste 0 -- -- 59
2019-11-16 12:00:00 7.9 6 Oeste 14 Noroeste 0 -- -- 67
2019-11-16 11:00:00 5.8 3 Oeste 8 Sudoeste 0 -- -- 75
2019-11-16 10:00:00 3.3 0 Calma 4 Sur 0 -- -- 88
2019-11-16 09:00:00 0.9 0 Calma 3 Sudeste 0 -- -- 94
2019-11-16 08:00:00 -0.1 0 Calma 4 Sudoeste 0 -- -- 94
2019-11-16 07:00:00 0.2 2 Sudoeste 5 Sudoeste 0 -- -- 92
2019-11-16 06:00:00 1 0 Calma 4 Sudoeste 0 -- -- 91
2019-11-16 05:00:00 1.5 0 Calma 3 Oeste 0 -- -- 88
2019-11-16 04:00:00 2.2 0 Calma 3 Sur 0 -- -- 87
2019-11-16 03:00:00 2.9 2 Sur 6 Sudoeste 0 -- -- 84
2019-11-16 02:00:00 3.3 4 Sudoeste 6 Sudoeste 0 -- -- 81
2019-11-16 01:00:00 3.7 4 Sudoeste 5 Sur 0 -- -- 81
2019-11-16 00:00:00 4.2 2 Sudoeste 6 Sur 0 -- -- 78
2019-11-15 23:00:00 4.7 3 Sur 7 Sur 0 -- -- 76
2019-11-15 22:00:00 5.5 4 Sudoeste 7 Sur 0 -- -- 74
2019-11-15 21:00:00 6.5 5 Sudoeste 9 Sur 0 -- -- 70
2019-11-15 20:00:00 7.1 6 Sur 10 Sudoeste 0 -- -- 69
2019-11-15 19:00:00 7.7 3 Sudoeste 9 Sur 0 -- -- 68
2019-11-15 18:00:00 8.2 5 Sudoeste 18 Noroeste 0 -- -- 64
2019-11-15 17:00:00 9.6 14 Oeste 23 Oeste 0 -- -- 57
2019-11-15 16:00:00 9.7 14 Oeste 25 Oeste 0 -- -- 58
2019-11-15 15:00:00 9.8 13 Oeste 22 Oeste 0 -- -- 59
2019-11-15 14:00:00 9.3 12 Oeste 24 Sudoeste 0 -- -- 60
2019-11-15 13:00:00 9.4 14 Sudoeste 29 Oeste 0 -- -- 61
2019-11-15 12:00:00 8.8 17 Sudoeste 30 Oeste 0 -- -- 65
2019-11-15 11:00:00 8.1 14 Sudoeste 24 Sudoeste 0 -- -- 74
2019-11-15 10:00:00 6.7 10 Sudoeste 17 Sur 0 -- -- 86
2019-11-15 09:00:00 4.3 9 Sudoeste 17 Sudoeste 0 -- -- 94
2019-11-15 08:00:00 3.9 8 Sudoeste 16 Sudoeste 0 -- -- 95
2019-11-15 07:00:00 4.5 10 Sur 15 Sudoeste 0 -- -- 94
2019-11-15 06:00:00 4.9 5 Sur 18 Sudoeste 0 -- -- 90
2019-11-15 05:00:00 5.4 6 Sudoeste 21 Sudoeste 0 -- -- 91
2019-11-15 04:00:00 5.9 11 Sudoeste 25 Sudoeste 0 -- -- 91
2019-11-15 03:00:00 6.3 11 Sudoeste 23 Sudoeste 0 -- -- 91
2019-11-15 02:00:00 7 16 Sudoeste 30 Sudoeste 0 -- -- 88
2019-11-15 01:00:00 7.5 17 Sudoeste 30 Sudoeste 0 -- -- 86
2019-11-15 00:00:00 8 16 Sudoeste 33 Sudoeste 0 -- -- 83
2019-11-14 23:00:00 8.8 19 Sudoeste 33 Sudoeste 0 -- -- 77
2019-11-14 22:00:00 9.4 15 Sudoeste 28 Sudoeste 0 -- -- 74
2019-11-14 21:00:00 9.8 15 Sudoeste 29 Sudoeste 0 -- -- 72
2019-11-14 20:00:00 10.3 15 Sudoeste 26 Sudoeste 0 -- -- 65
2019-11-14 19:00:00 10.3 14 Sudoeste 35 Oeste 0 -- -- 61
2019-11-14 18:00:00 12.3 24 Oeste 43 Oeste 0 -- -- 54
2019-11-14 17:00:00 13.6 24 Oeste 44 Sudoeste 0 -- -- 53
2019-11-14 16:00:00 12.9 25 Oeste 42 Sudoeste 0 -- -- 65
2019-11-14 15:00:00 11.6 24 Sudoeste 41 Oeste 0 -- -- 80
2019-11-14 14:00:00 11.3 28 Oeste 48 Sudoeste 0 -- -- 78
2019-11-14 13:00:00 10.8 33 Oeste 53 Oeste 0.2 -- -- 91
2019-11-14 12:00:00 11 22 Sudoeste 39 Sudoeste 0.6 -- -- 95
2019-11-14 11:00:00 10.8 22 Sudoeste 42 Sudoeste 0 -- -- 89
2019-11-14 10:00:00 10.4 23 Sudoeste 39 Sudoeste 0 -- -- 88
2019-11-14 09:00:00 10.1 17 Sudoeste 30 Sur 0 -- -- 89
2019-11-14 08:00:00 9.5 12 Sudoeste 23 Sur 0 -- -- 92
2019-11-14 07:00:00 9.2 12 Sudoeste 21 Sudoeste 0 -- -- 93
2019-11-14 06:00:00 9.1 8 Sudoeste 22 Sudoeste 0 -- -- 90
2019-11-14 05:00:00 10.4 13 Sudoeste 21 Sudoeste 0 -- -- 91
2019-11-14 04:00:00 11.2 10 Sudoeste 23 Sudoeste 0 -- -- 95
2019-11-14 03:00:00 11.4 9 Sur 17 Sur 0 -- -- 94
2019-11-14 02:00:00 12.2 13 Sur 26 Sudoeste 0 -- -- 94
2019-11-14 01:00:00 12.5 11 Sudoeste 21 Sudoeste 0 -- -- 93
2019-11-14 00:00:00 12.3 9 Sudoeste 17 Sur 0 -- -- 91
2019-11-13 23:00:00 13.1 10 Sur 18 Sur 0 -- -- 89
2019-11-13 22:00:00 13.9 11 Sudoeste 21 Sur 0 -- -- 86
2019-11-13 21:00:00 14.2 11 Sudoeste 17 Sudoeste 0 -- -- 77
2019-11-13 20:00:00 15.1 9 Sur 18 Sudoeste 0 -- -- 74
2019-11-13 19:00:00 16.4 11 Sudoeste 23 Sudoeste 0 -- -- 71
2019-11-13 18:00:00 18 13 Sudoeste 29 Sudoeste 0 -- -- 66
2019-11-13 17:00:00 19.2 17 Sudoeste 28 Sudoeste 0 -- -- 62
2019-11-13 16:00:00 19.1 19 Sudoeste 33 Oeste 0 -- -- 62
2019-11-13 15:00:00 18.9 21 Sudoeste 33 Oeste 0 -- -- 66
2019-11-13 14:00:00 17.6 23 Sudoeste 37 Sudoeste 0 -- -- 73
2019-11-13 13:00:00 15.4 19 Sudoeste 39 Sudoeste 0 -- -- 83
2019-11-13 12:00:00 15 21 Sudoeste 34 Sudoeste 0 -- -- 85
2019-11-13 11:00:00 14.2 19 Sudoeste 37 Sudoeste 0 -- -- 87
2019-11-13 10:00:00 12.9 18 Sudoeste 32 Sudoeste 0 -- -- 94
2019-11-13 09:00:00 12.3 17 Sudoeste 32 Sudoeste 0 -- -- 94
2019-11-13 08:00:00 12 15 Sudoeste 30 Sudoeste 0 -- -- 93
2019-11-13 07:00:00 12.1 15 Sudoeste 29 Sudoeste 0 -- -- 86
2019-11-13 06:00:00 11.6 14 Sudoeste 30 Sudoeste 0 -- -- 82
2019-11-13 05:00:00 11.9 16 Sudoeste 26 Sudoeste 0 -- -- 77
2019-11-13 04:00:00 11.6 12 Sudoeste 22 Sudoeste 0 -- -- 72
2019-11-13 03:00:00 11.7 11 Sudoeste 20 Sudoeste 0 -- -- 68
2019-11-13 02:00:00 11.1 7 Sudoeste 20 Sur 0 -- -- 69
2019-11-13 01:00:00 10.4 5 Sudoeste 13 Sudoeste 0 -- -- 68
2019-11-13 00:00:00 10.3 8 Sur 12 Sur 0 -- -- 65
2019-11-12 23:00:00 10.3 10 Sur 13 Sur 0 -- -- 66
2019-11-12 22:00:00 10.4 6 Sudoeste 11 Sudoeste 0 -- -- 67
2019-11-12 21:00:00 11.5 7 Sudoeste 12 Sudoeste 0 -- -- 62
2019-11-12 20:00:00 12.4 2 Oeste 13 Oeste 0 -- -- 59
2019-11-12 19:00:00 13.3 3 Oeste 10 Noroeste 0 -- -- 63
2019-11-12 18:00:00 15.5 3 Sudoeste 15 Sudoeste 0 -- -- 56
2019-11-12 17:00:00 16.7 5 Oeste 17 Oeste 0 -- -- 52
2019-11-12 16:00:00 16.2 5 Sudoeste 20 Oeste 0 -- -- 52
2019-11-12 15:00:00 16.1 6 Sudoeste 13 Oeste 0 -- -- 54
2019-11-12 14:00:00 15.1 4 Este 13 Norte 0 -- -- 57
2019-11-12 13:00:00 13.6 4 Nordeste 12 Norte 0 -- -- 68
2019-11-12 12:00:00 11.5 3 Norte 9 Noroeste 0 -- -- 85
2019-11-12 11:00:00 9.8 5 Nordeste 10 Nordeste 0 -- -- 95
2019-11-12 10:00:00 9.2 4 Norte 10 Nordeste 0 -- -- 97
2019-11-12 09:00:00 7.4 4 Norte 8 Norte 0 -- -- 98
2019-11-12 08:00:00 7.3 4 Noroeste 8 Norte 0 -- -- 98
2019-11-12 07:00:00 6 6 Norte 12 Nordeste 0 -- -- 98
2019-11-12 06:00:00 6.8 6 Nordeste 11 Nordeste 0 -- -- 97
2019-11-12 05:00:00 6.8 6 Norte 9 Nordeste 0 -- -- 96
2019-11-12 04:00:00 7.9 8 Nordeste 9 Nordeste 0 -- -- 96
2019-11-12 03:00:00 7.8 6 Nordeste 9 Nordeste 0 -- -- 95
2019-11-12 02:00:00 8.6 7 Nordeste 8 Nordeste 0 -- -- 94
2019-11-12 01:00:00 9 4 Norte 7 Norte 0 -- -- 92
2019-11-12 00:00:00 9.4 4 Este 9 Este 0 -- -- 89
2019-11-11 23:00:00 10.6 2 Noroeste 3 Noroeste 0 -- -- 88
2019-11-11 22:00:00 11.6 0 Calma 4 Este 0 -- -- 83
2019-11-11 21:00:00 12.2 0 Calma 5 Sur 0 -- -- 83
2019-11-11 20:00:00 12.8 4 Sur 7 Sudeste 0 -- -- 82
2019-11-11 19:00:00 12.9 3 Sur 13 Oeste 0 -- -- 81
2019-11-11 18:00:00 13.2 9 Sudoeste 20 Sudoeste 0 -- -- 78
2019-11-11 17:00:00 13.6 9 Sudoeste 22 Sudoeste 0 -- -- 74
2019-11-11 16:00:00 13.9 11 Sudoeste 18 Sudoeste 0 -- -- 69
2019-11-11 15:00:00 14 8 Sudoeste 16 Sudoeste 0 -- -- 68
2019-11-11 14:00:00 13.4 7 Sudoeste 17 Oeste 0 -- -- 67
2019-11-11 13:00:00 13.2 8 Sudoeste 17 Sudoeste 0 -- -- 66
2019-11-11 12:00:00 13.1 8 Sudoeste 15 Sudoeste 0 -- -- 65
2019-11-11 11:00:00 11.9 8 Sur 13 Sur 0 -- -- 75
2019-11-11 10:00:00 10.1 4 Sudoeste 7 Sur 0 -- -- 79
2019-11-11 09:00:00 9 3 Sudoeste 4 Oeste 0 -- -- 81
2019-11-11 08:00:00 8.9 3 Sudoeste 3 Sudoeste 0 -- -- 79
2019-11-11 07:00:00 9.1 0 Calma 8 Sudoeste 0 -- -- 78
2019-11-11 06:00:00 9.9 4 Oeste 9 Noroeste 0 -- -- 74
2019-11-11 05:00:00 10.1 6 Oeste 10 Oeste 0 -- -- 73
2019-11-11 04:00:00 10.4 5 Sudoeste 9 Oeste 0 -- -- 72
2019-11-11 03:00:00 10.3 3 Oeste 6 Sur 0 -- -- 71
2019-11-11 02:00:00 10.9 0 Calma 13 Oeste 0 -- -- 68
2019-11-11 01:00:00 10.5 9 Oeste 12 Oeste 0 -- -- 69
2019-11-11 00:00:00 10.9 9 Oeste 12 Noroeste 0 -- -- 67
2019-11-10 23:00:00 11.3 6 Noroeste 18 Oeste 0 -- -- 64
2019-11-10 22:00:00 11.3 11 Oeste 24 Oeste 0 -- -- 63
2019-11-10 21:00:00 11.6 15 Oeste 24 Oeste 0 -- -- 59
2019-11-10 20:00:00 11.8 10 Noroeste 28 Noroeste 0 -- -- 58
2019-11-10 19:00:00 12.3 13 Noroeste 32 Oeste 0 -- -- 55
2019-11-10 18:00:00 13 15 Noroeste 31 Noroeste 0 -- -- 51
2019-11-10 17:00:00 13.9 8 Noroeste 26 Oeste 0 -- -- 46
2019-11-10 16:00:00 14 8 Noroeste 23 Noroeste 0 -- -- 48
2019-11-10 15:00:00 14.2 10 Noroeste 28 Oeste 0 -- -- 46
2019-11-10 14:00:00 14.2 9 Noroeste 23 Noroeste 0 -- -- 48
2019-11-10 13:00:00 13.6 7 Noroeste 18 Noroeste 0 -- -- 51
2019-11-10 12:00:00 13.2 9 Noroeste 21 Oeste 0 -- -- 54
2019-11-10 11:00:00 12.5 7 Noroeste 17 Oeste 0 -- -- 59
2019-11-10 10:00:00 10.9 10 Oeste 14 Oeste 0 -- -- 73
2019-11-10 09:00:00 10 10 Oeste 20 Oeste 0 -- -- 77
2019-11-10 08:00:00 9.3 10 Oeste 20 Oeste 0 -- -- 78
2019-11-10 07:00:00 11 11 Oeste 22 Oeste 0 -- -- 72
2019-11-10 06:00:00 10.3 14 Oeste 24 Oeste 0 -- -- 81
2019-11-10 05:00:00 10.7 7 Sudoeste 16 Sudoeste 0 -- -- 91
2019-11-10 04:00:00 10.9 8 Sudoeste 15 Sudoeste 0 -- -- 91
2019-11-10 03:00:00 11 9 Sudoeste 17 Sudoeste 0 -- -- 88
2019-11-10 02:00:00 11.7 12 Sudoeste 22 Sudoeste 0 -- -- 82
2019-11-10 01:00:00 12 12 Sudoeste 28 Sudoeste 0 -- -- 78
2019-11-10 00:00:00 12 13 Sudoeste 22 Sudoeste 0 -- -- 71
2019-11-09 23:00:00 12.2 12 Sudoeste 22 Sudoeste 0 -- -- 64
2019-11-09 22:00:00 12.4 12 Sudoeste 21 Sudoeste 0 -- -- 58
2019-11-09 21:00:00 11.5 9 Sudoeste 16 Sur 0 -- -- 63
2019-11-09 20:00:00 11.8 8 Sur 14 Sudoeste 0 -- -- 62
2019-11-09 19:00:00 12.7 8 Sur 14 Sur 0 -- -- 58
2019-11-09 18:00:00 13.7 7 Sur 17 Sur 0 -- -- 54
2019-11-09 17:00:00 14.4 9 Sudoeste 20 Sur 0 -- -- 52
2019-11-09 16:00:00 14.9 10 Sudoeste 18 Sudoeste 0 -- -- 49
2019-11-09 15:00:00 15.2 8 Sudoeste 17 Oeste 0 -- -- 47
2019-11-09 14:00:00 14.7 4 Sudoeste 16 Oeste 0 -- -- 48
2019-11-09 13:00:00 13.3 5 Sudoeste 14 Sudoeste 0 -- -- 53
2019-11-09 12:00:00 11.9 6 Sudoeste 13 Sur 0 -- -- 59
2019-11-09 11:00:00 9.8 5 Sudoeste 9 Sur 0 -- -- 66
2019-11-09 10:00:00 5.9 3 Oeste 4 Sur 0 -- -- 84
2019-11-09 09:00:00 3.1 2 Sur 6 Sudoeste 0 -- -- 90
2019-11-09 08:00:00 2.9 2 Nordeste 5 Nordeste 0 -- -- 89
2019-11-09 07:00:00 3.3 0 Calma 6 Norte 0 -- -- 88
2019-11-09 06:00:00 3.4 0 Calma 3 Noroeste 0 -- -- 87
2019-11-09 05:00:00 3.6 0 Calma 3 Oeste 0 -- -- 88
2019-11-09 04:00:00 4 0 Calma 3 Sudoeste 0 -- -- 87
2019-11-09 03:00:00 4.7 2 Sudoeste 4 Sudoeste 0 -- -- 84
2019-11-09 02:00:00 5.4 2 Sur 6 Sudoeste 0 -- -- 78
2019-11-09 01:00:00 6.2 5 Oeste 7 Sudoeste 0 -- -- 77
2019-11-09 00:00:00 6.6 4 Sudoeste 9 Sur 0 -- -- 76
2019-11-08 23:00:00 7.3 5 Sudoeste 10 Sudoeste 0 -- -- 74
2019-11-08 22:00:00 8.8 5 Sur 9 Oeste -- -- -- 65
2019-11-08 21:00:00 9.2 0 Calma 6 Noroeste 0 -- -- 64
2019-11-08 20:00:00 10.9 3 Oeste 9 Noroeste -- -- -- 58
2019-11-08 19:00:00 11.9 4 Noroeste 12 Noroeste 0 -- -- 56
2019-11-08 18:00:00 14.5 6 Noroeste 18 Oeste -- -- -- 46
2019-11-08 17:00:00 15.5 11 Oeste 23 Oeste 0 -- -- 39
2019-11-08 16:00:00 15.6 3 Sur 15 Oeste 0 -- -- 44
2019-11-08 15:00:00 15.1 8 Oeste 19 Noroeste -- -- -- 46
2019-11-08 14:00:00 13.6 5 Noroeste 15 Oeste 0 -- -- 52
2019-11-08 13:00:00 12.5 6 Sudoeste 19 Oeste -- -- -- 62
2019-11-08 12:00:00 11.2 7 Sudoeste 24 Sudoeste 0 -- -- 70
2019-11-08 11:00:00 10.7 10 Oeste 19 Sudoeste 0 -- -- 72
2019-11-08 10:00:00 9.2 8 Sudoeste 13 Sudoeste 0 -- -- 83
2019-11-08 09:00:00 6.3 6 Sudoeste 9 Sudoeste 0 -- -- 92
2019-11-08 08:00:00 5.5 5 Sudoeste 9 Sudoeste 0 -- -- 91
2019-11-08 07:00:00 6.3 5 Sudoeste 13 Sur 0 -- -- 88
2019-11-08 06:00:00 6.9 9 Sur 13 Sudoeste 0 -- -- 86
2019-11-08 05:00:00 6.8 4 Sudoeste 11 Sur 0 -- -- 86
2019-11-08 04:00:00 7.1 3 Oeste 11 Oeste 0 -- -- 84
2019-11-08 03:00:00 7.3 11 Oeste 17 Oeste 0 -- -- 81
2019-11-08 02:00:00 7 6 Sudoeste 10 Sudoeste 0 -- -- 82
2019-11-08 01:00:00 8.1 3 Sur 14 Sudoeste 0 -- -- 77
2019-11-08 00:00:00 8.5 7 Sudoeste 15 Oeste 0 -- -- 77